Rawdon, Canada
Current Conditions -  °F | °C
As of 1:00 PM on Thursday 27 Nov 2014 (Local Time) from CYMX Reporting Station
Broken Clouds Broken Clouds  
Wind Chill: 30°   Ceiling: 25000
Heat Index: 30°   Visibility: 45mi
Dew Point: 16°   Wind: 3mph
Humidity: 55%   Direction: 260°W
Pressure: 30.02"   Gusts: NA
Location:  46.03°N, 73.7°W
Report Text: CYMX 271800Z 26003KT 190V290 45SM FEW032 BKN250 M01/M09 A3002 RMK CF1CI6 SLP170
Loading
Personal Weather Stations






























Interactive Weather Map New forecast layout! Learn more

10-Day Weather Forecast

Advertisements
Track Severe Weather on mobile